Time;durP1;ratioP1;P1;durP2;ratioP2;P2;SDS_P1;SDS_P2;PMS_P1;PMS_P2;Temp;Humidity;BMP_temperature;BMP_pressure;BME280_temperature;BME280_humidity;BME280_pressure;Samples;Min_cycle;Max_cycle;Signal;HPM_P1;HPM_P2
2022/04/20 00:01:15;;;;;;;;;;;;;;;8.49;50.95;99615.44;4370777;32;20548;-81
2022/04/20 00:03:42;;;;;;;;;;;;;;;8.09;52.41;99616.25;4342288;32;20005;-81
2022/04/20 00:06:09;;;;;;;;;;;;;;;8.24;51.94;99610.56;4392124;32;20017;-81
2022/04/20 00:08:36;;;;;;;;;;;;;;;8.28;52.11;99613.22;4384544;32;20033;-80
2022/04/20 00:11:04;;;;;;;;;;;;;;;8.12;52.64;99618.88;4385414;32;19991;-80
2022/04/20 00:13:30;;;;;;;;;;;;;;;8.12;52.91;99624.03;4384889;32;20012;-80
2022/04/20 00:15:57;;;;;;;;;;;;;;;8.09;53.40;99616.25;4384430;32;19991;-79
2022/04/20 00:18:24;;;;;;;;;;;;;;;8.12;53.38;99621.47;4385744;32;20339;-80
2022/04/20 00:20:51;;;;;;;;;;;;;;;8.32;52.93;99614.16;4385314;32;20024;-80
2022/04/20 00:23:18;;;;;;;;;;;;;;;8.40;52.61;99614.38;4383072;32;20396;-81
2022/04/20 00:25:45;;;;;;;;;;;;;;;8.28;53.22;99608.06;4376063;32;20335;-80
2022/04/20 00:28:12;;;;;;;;;;;;;;;8.35;53.13;99617.66;4385816;32;19974;-80
2022/04/20 00:30:38;;;;;;;;;;;;;;;8.32;53.19;99615.03;4384523;32;20386;-79
2022/04/20 00:33:05;;;;;;;;;;;;;;;8.37;53.02;99613.44;4385788;32;19983;-78
2022/04/20 00:35:34;;;;;;;;;;;;;;;8.44;52.79;99613.59;4385585;32;20029;-80
2022/04/20 00:38:00;;;;;;;;;;;;;;;8.42;52.77;99615.25;4385570;32;20785;-81
2022/04/20 00:40:27;;;;;;;;;;;;;;;8.42;53.12;99607.53;4396773;32;20104;-79
2022/04/20 00:42:55;;;;;;;;;;;;;;;8.48;52.37;99616.25;4384504;32;19998;-81
2022/04/20 00:45:21;;;;;;;;;;;;;;;8.36;52.62;99606.53;4385083;32;19988;-81
2022/04/20 00:47:49;;;;;;;;;;;;;;;8.56;51.99;99608.69;4385516;32;20043;-80
2022/04/20 00:50:16;;;;;;;;;;;;;;;8.33;52.15;99609.06;4396994;32;19994;-80
2022/04/20 00:52:42;;;;;;;;;;;;;;;8.42;51.95;99612.69;4384850;32;19974;-80
2022/04/20 00:55:28;;;;;;;;;;;;;;;8.56;51.44;99619.00;4384223;32;20670;-80
2022/04/20 00:57:55;;;;;;;;;;;;;;;8.41;51.57;99618.69;4385673;32;19982;-80
2022/04/20 01:00:22;;;;;;;;;;;;;;;8.47;51.55;99624.84;4385966;32;20002;-80
2022/04/20 01:02:49;;;;;;;;;;;;;;;8.51;51.52;99623.19;4385167;32;19990;-80
2022/04/20 01:05:16;;;;;;;;;;;;;;;8.44;51.83;99623.91;4385811;32;20285;-80
2022/04/20 01:07:43;;;;;;;;;;;;;;;8.36;51.36;99624.59;4385131;32;20036;-80
2022/04/20 01:10:10;;;;;;;;;;;;;;;8.41;51.47;99621.25;4385591;32;20028;-80
2022/04/20 01:12:38;;;;;;;;;;;;;;;8.52;51.03;99622.34;4384714;32;19998;-79
2022/04/20 01:15:05;;;;;;;;;;;;;;;8.46;51.18;99622.25;4384808;32;20028;-79
2022/04/20 01:17:33;;;;;;;;;;;;;;;8.32;51.29;99625.34;4383901;32;19986;-80
2022/04/20 01:20:00;;;;;;;;;;;;;;;8.29;51.82;99630.44;4385615;32;19978;-77
2022/04/20 01:22:28;;;;;;;;;;;;;;;8.25;52.07;99623.47;4385406;32;20008;-80
2022/04/20 01:24:55;;;;;;;;;;;;;;;8.29;51.99;99630.44;4384938;32;19979;-80
2022/04/20 01:27:24;;;;;;;;;;;;;;;8.27;52.00;99626.97;4385027;32;20024;-79
2022/04/20 01:29:50;;;;;;;;;;;;;;;8.31;51.70;99623.59;4385821;32;19979;-80
2022/04/20 01:32:18;;;;;;;;;;;;;;;8.33;51.68;99629.69;4396388;32;20024;-79
2022/04/20 01:34:45;;;;;;;;;;;;;;;8.31;51.43;99639.09;4378439;32;20502;-80
2022/04/20 01:37:12;;;;;;;;;;;;;;;8.29;50.91;99635.59;4367519;32;19974;-80
2022/04/20 01:39:39;;;;;;;;;;;;;;;8.20;51.51;99635.41;4385313;32;19986;-80
2022/04/20 01:42:10;;;;;;;;;;;;;;;8.26;51.21;99645.84;4384408;32;20065;-81
2022/04/20 01:44:38;;;;;;;;;;;;;;;8.27;51.14;99639.84;4385561;32;19990;-80
2022/04/20 01:47:06;;;;;;;;;;;;;;;8.10;51.81;99638.59;4387585;32;20415;-80
2022/04/20 01:49:33;;;;;;;;;;;;;;;8.16;51.87;99644.75;4384313;32;20037;-79
2022/04/20 01:52:01;;;;;;;;;;;;;;;7.97;51.61;99636.56;4396331;32;20001;-79
2022/04/20 01:54:28;;;;;;;;;;;;;;;8.18;50.98;99637.06;4385688;32;19978;-79
2022/04/20 01:56:55;;;;;;;;;;;;;;;7.90;51.56;99641.59;4347286;32;19979;-80
2022/04/20 01:59:23;;;;;;;;;;;;;;;7.86;51.95;99634.63;4387163;32;19994;-81
2022/04/20 02:04:36;;;;;;;;;;;;;;;7.77;51.79;99634.41;4384739;32;20053;-79
2022/04/20 02:07:02;;;;;;;;;;;;;;;7.74;51.99;99639.47;4383700;32;19986;-80
2022/04/20 02:09:32;;;;;;;;;;;;;;;7.68;52.39;99634.19;4383539;32;19990;-80
2022/04/20 02:11:59;;;;;;;;;;;;;;;7.73;51.95;99635.19;4384128;32;19999;-80
2022/04/20 02:14:27;;;;;;;;;;;;;;;7.57;52.16;99631.34;4381050;32;20423;-82
2022/04/20 02:16:55;;;;;;;;;;;;;;;7.70;52.02;99635.09;4384079;32;19998;-81
2022/04/20 02:19:23;;;;;;;;;;;;;;;7.80;51.63;99623.31;4384434;32;19987;-80
2022/04/20 02:21:50;;;;;;;;;;;;;;;7.53;52.10;99628.66;4384536;32;19994;-80
2022/04/20 02:24:18;;;;;;;;;;;;;;;7.56;51.84;99631.31;4384169;32;19978;-80
2022/04/20 02:26:45;;;;;;;;;;;;;;;7.42;52.50;99631.84;4384932;32;19983;-79
2022/04/20 02:29:12;;;;;;;;;;;;;;;7.43;52.57;99628.44;4383644;32;19982;-81
2022/04/20 02:31:39;;;;;;;;;;;;;;;7.34;53.18;99627.31;4384687;32;19996;-80
2022/04/20 02:34:06;;;;;;;;;;;;;;;7.28;53.15;99628.06;4383906;32;19983;-80
2022/04/20 02:36:32;;;;;;;;;;;;;;;7.29;53.16;99629.78;4383480;32;20049;-80
2022/04/20 02:39:03;;;;;;;;;;;;;;;7.44;52.64;99624.16;4384337;32;19978;-79
2022/04/20 02:41:31;;;;;;;;;;;;;;;7.35;53.19;99629.94;4381683;32;20001;-78
2022/04/20 02:43:57;;;;;;;;;;;;;;;7.42;52.90;99626.69;4375710;32;19996;-80
2022/04/20 02:46:24;;;;;;;;;;;;;;;7.50;52.44;99636.28;4395585;32;20040;-80
2022/04/20 02:48:51;;;;;;;;;;;;;;;7.44;52.62;99629.31;4386137;32;20043;-80
2022/04/20 02:51:18;;;;;;;;;;;;;;;7.57;52.32;99630.50;4397564;32;19998;-81
2022/04/20 02:53:45;;;;;;;;;;;;;;;7.64;52.26;99627.22;4386788;32;19987;-79
2022/04/20 02:56:12;;;;;;;;;;;;;;;7.35;53.23;99635.09;4385668;32;19971;-80
2022/04/20 02:58:40;;;;;;;;;;;;;;;7.60;52.45;99628.00;4386859;32;20029;-80
2022/04/20 03:01:07;;;;;;;;;;;;;;;7.72;52.27;99630.84;4386582;32;19986;-79
2022/04/20 03:03:35;;;;;;;;;;;;;;;7.55;52.74;99637.28;4386907;32;19967;-80
2022/04/20 03:06:02;;;;;;;;;;;;;;;7.60;52.96;99640.88;4386827;32;20332;-81
2022/04/20 03:08:29;;;;;;;;;;;;;;;7.67;52.69;99642.75;4385139;32;20066;-80
2022/04/20 03:10:57;;;;;;;;;;;;;;;7.36;53.52;99641.97;4387029;32;19978;-80
2022/04/20 03:13:24;;;;;;;;;;;;;;;7.63;52.79;99635.78;4385846;32;20362;-80
2022/04/20 03:15:51;;;;;;;;;;;;;;;7.52;53.25;99642.37;4385411;32;19989;-80
2022/04/20 03:18:18;;;;;;;;;;;;;;;7.71;52.64;99644.56;4386492;32;19986;-80
2022/04/20 03:20:45;;;;;;;;;;;;;;;7.89;51.79;99637.28;4386443;32;19987;-81
2022/04/20 03:23:14;;;;;;;;;;;;;;;7.80;52.09;99634.47;4385682;32;19975;-79
2022/04/20 03:25:42;;;;;;;;;;;;;;;7.62;52.62;99641.75;4385610;32;20033;-80
2022/04/20 03:28:10;;;;;;;;;;;;;;;7.73;52.37;99648.06;4384744;32;20806;-81
2022/04/20 03:30:38;;;;;;;;;;;;;;;7.72;51.78;99646.28;4385290;32;19974;-80
2022/04/20 03:33:05;;;;;;;;;;;;;;;7.61;52.38;99653.78;4379105;32;19974;-80
2022/04/20 03:35:32;;;;;;;;;;;;;;;7.70;52.46;99653.13;4384941;32;20005;-81
2022/04/20 03:37:58;;;;;;;;;;;;;;;7.76;52.07;99652.41;4386193;32;20032;-80
2022/04/20 03:40:28;;;;;;;;;;;;;;;7.61;52.48;99652.91;4386327;32;19978;-80
2022/04/20 03:42:55;;;;;;;;;;;;;;;7.62;52.88;99664.94;4385318;32;19996;-81
2022/04/20 03:45:22;;;;;;;;;;;;;;;7.72;52.86;99656.59;4386548;32;20312;-80
2022/04/20 03:47:49;;;;;;;;;;;;;;;7.74;53.02;99662.66;4385396;32;20313;-79
2022/04/20 03:50:17;;;;;;;;;;;;;;;7.55;54.13;99663.06;4386516;32;20317;-81
2022/04/20 03:52:44;;;;;;;;;;;;;;;7.63;54.21;99661.56;4386111;32;20021;-80
2022/04/20 03:55:11;;;;;;;;;;;;;;;7.68;54.12;99659.94;4386223;32;19974;-81
2022/04/20 03:57:38;;;;;;;;;;;;;;;7.77;54.22;99665.31;4397313;32;20713;-81
2022/04/20 04:00:06;;;;;;;;;;;;;;;7.77;54.42;99664.47;4396678;32;19978;-80
2022/04/20 04:02:42;;;;;;;;;;;;;;;7.74;54.94;99665.25;4386009;32;19974;-80
2022/04/20 04:05:09;;;;;;;;;;;;;;;7.82;55.26;99668.91;4386296;32;19983;-80
2022/04/20 04:07:37;;;;;;;;;;;;;;;7.78;55.53;99666.19;4385318;32;19978;-81
2022/04/20 04:10:05;;;;;;;;;;;;;;;7.89;55.25;99663.06;4386288;32;20259;-80
2022/04/20 04:12:32;;;;;;;;;;;;;;;8.10;54.73;99664.38;4385718;32;20434;-80
2022/04/20 04:15:03;;;;;;;;;;;;;;;8.20;54.26;99671.50;4385272;32;20041;-79
2022/04/20 04:17:30;;;;;;;;;;;;;;;8.18;54.37;99662.84;4382274;32;19982;-80
2022/04/20 04:19:58;;;;;;;;;;;;;;;8.18;54.27;99667.16;4371363;32;19982;-82
2022/04/20 04:22:25;;;;;;;;;;;;;;;8.21;54.45;99670.66;4379230;32;20373;-81
2022/04/20 04:24:53;;;;;;;;;;;;;;;8.43;53.91;99676.34;4386010;32;20367;-82
2022/04/20 04:27:21;;;;;;;;;;;;;;;8.52;53.59;99673.94;4385730;32;20001;-83
2022/04/20 04:29:48;;;;;;;;;;;;;;;8.53;53.75;99670.53;4386573;32;20005;-80
2022/04/20 04:32:16;;;;;;;;;;;;;;;8.58;54.23;99679.22;4385571;32;19970;-80
2022/04/20 04:34:43;;;;;;;;;;;;;;;8.64;53.88;99684.53;4379717;32;19990;-81
2022/04/20 04:37:13;;;;;;;;;;;;;;;8.79;53.37;99681.41;4390124;32;20037;-81
2022/04/20 04:39:40;;;;;;;;;;;;;;;8.84;53.40;99688.41;4385879;32;19983;-81
2022/04/20 04:42:08;;;;;;;;;;;;;;;8.83;53.62;99686.66;4385355;32;19986;-78
2022/04/20 04:44:35;;;;;;;;;;;;;;;8.69;53.93;99688.09;4385704;32;19986;-81
2022/04/20 04:49:48;;;;;;;;;;;;;;;8.60;54.31;99693.03;4385730;32;19978;-81
2022/04/20 04:52:16;;;;;;;;;;;;;;;8.70;54.22;99689.81;4386190;32;19966;-79
2022/04/20 04:54:43;;;;;;;;;;;;;;;8.90;53.79;99692.78;4386000;32;19974;-81
2022/04/20 04:57:12;;;;;;;;;;;;;;;8.96;53.23;99697.22;4384040;32;19990;-79
2022/04/20 04:59:40;;;;;;;;;;;;;;;8.92;53.36;99700.59;4385422;32;20002;-82
2022/04/20 05:02:07;;;;;;;;;;;;;;;9.12;52.68;99700.97;4385870;32;20049;-82
2022/04/20 05:04:34;;;;;;;;;;;;;;;9.14;52.79;99705.34;4383408;32;19994;-80
2022/04/20 05:07:02;;;;;;;;;;;;;;;9.21;52.36;99708.91;4385704;32;20325;-80
2022/04/20 05:09:30;;;;;;;;;;;;;;;8.91;53.34;99697.16;4383581;32;19982;-81
2022/04/20 05:11:58;;;;;;;;;;;;;;;8.93;53.66;99704.91;4379936;32;19993;-81
2022/04/20 05:14:25;;;;;;;;;;;;;;;9.13;52.75;99705.31;4384456;32;19990;-79
2022/04/20 05:16:52;;;;;;;;;;;;;;;9.18;53.00;99704.56;4383911;32;19990;-79
2022/04/20 05:19:19;;;;;;;;;;;;;;;9.03;53.38;99704.25;4383737;32;19979;-79
2022/04/20 05:21:48;;;;;;;;;;;;;;;9.17;52.93;99707.97;4385329;32;19979;-79
2022/04/20 05:24:15;;;;;;;;;;;;;;;9.20;53.21;99700.28;4381676;32;20050;-79
2022/04/20 05:26:42;;;;;;;;;;;;;;;9.36;52.80;99713.50;4385373;32;19989;-80
2022/04/20 05:29:09;;;;;;;;;;;;;;;9.39;52.83;99713.56;4385560;32;19999;-79
2022/04/20 05:31:37;;;;;;;;;;;;;;;9.47;52.58;99711.97;4385332;32;20042;-79
2022/04/20 05:34:05;;;;;;;;;;;;;;;9.39;52.72;99708.41;4382232;32;20030;-78
2022/04/20 05:41:39;;;;;;;;;;;;;;;9.60;52.51;99708.78;4384862;32;20033;-79
2022/04/20 05:42:06;;;;;;;;;;;;;;;9.52;53.16;99707.78;4382608;32;20601;-79
2022/04/20 05:44:34;;;;;;;;;;;;;;;9.75;52.84;99703.87;4375499;32;20054;-77
2022/04/20 05:47:01;;;;;;;;;;;;;;;9.94;52.48;99714.53;4379286;32;19992;-78
2022/04/20 05:49:27;;;;;;;;;;;;;;;9.89;52.74;99705.81;4392845;32;20798;-80
2022/04/20 05:51:54;;;;;;;;;;;;;;;10.06;52.42;99709.56;4382161;32;19974;-78
2022/04/20 05:54:23;;;;;;;;;;;;;;;9.96;53.59;99715.44;4378447;32;20014;-78
2022/04/20 05:56:50;;;;;;;;;;;;;;;10.20;52.64;99702.88;4378326;32;19994;-78
2022/04/20 05:59:18;;;;;;;;;;;;;;;10.31;52.09;99708.25;4371898;32;19991;-78
2022/04/20 06:01:45;;;;;;;;;;;;;;;10.32;51.43;99704.81;4373016;32;20000;-76
2022/04/20 06:04:12;;;;;;;;;;;;;;;10.30;51.66;99708.22;4375651;32;20005;-80
2022/04/20 06:06:39;;;;;;;;;;;;;;;10.29;52.21;99706.50;4376451;32;20347;-77
2022/04/20 06:09:06;;;;;;;;;;;;;;;10.40;52.41;99702.31;4377812;32;19990;-78
2022/04/20 06:11:34;;;;;;;;;;;;;;;10.39;52.28;99700.59;4379813;32;19978;-80
2022/04/20 06:14:02;;;;;;;;;;;;;;;10.64;51.31;99697.50;4372757;32;19979;-78
2022/04/20 06:16:29;;;;;;;;;;;;;;;10.70;51.41;99699.31;4379847;32;20021;-80
2022/04/20 06:19:03;;;;;;;;;;;;;;;10.85;51.05;99698.66;4350930;32;19983;-77
2022/04/20 06:21:29;;;;;;;;;;;;;;;11.04;50.05;99694.53;4352542;32;20026;-77
2022/04/20 06:23:58;;;;;;;;;;;;;;;11.03;50.59;99698.84;4340500;33;19987;-77
2022/04/20 06:26:25;;;;;;;;;;;;;;;11.46;49.20;99699.34;4340235;32;19998;-76
2022/04/20 06:28:53;;;;;;;;;;;;;;;11.66;47.50;99691.75;4340361;33;20380;-79
2022/04/20 06:31:20;;;;;;;;;;;;;;;12.00;47.49;99698.13;4346273;32;20038;-78
2022/04/20 06:33:48;;;;;;;;;;;;;;;12.02;47.44;99691.22;4355098;32;19980;-77
2022/04/20 06:36:16;;;;;;;;;;;;;;;12.51;46.23;99688.97;4355282;32;20336;-79
2022/04/20 06:38:43;;;;;;;;;;;;;;;13.03;45.02;99691.81;4355498;32;19983;-76
2022/04/20 06:41:11;;;;;;;;;;;;;;;13.33;44.19;99684.97;4152617;32;5002218;-77
2022/04/20 06:43:38;;;;;;;;;;;;;;;13.82;43.60;99687.69;4355399;32;20006;-79
2022/04/20 06:46:05;;;;;;;;;;;;;;;14.23;42.89;99681.59;4355091;32;19987;-75
2022/04/20 06:48:33;;;;;;;;;;;;;;;14.36;41.93;99683.31;4354886;32;20022;-79
2022/04/20 06:51:01;;;;;;;;;;;;;;;14.34;41.73;99685.03;4354218;32;20029;-78
2022/04/20 06:58:59;;;;;;;;;;;;;;;15.28;39.19;99664.75;4385234;32;19979;-77
2022/04/20 07:01:27;;;;;;;;;;;;;;;15.58;40.08;99665.41;4384416;32;19997;-78
2022/04/20 07:03:55;;;;;;;;;;;;;;;15.64;38.52;99665.37;4385016;32;19986;-80
2022/04/20 07:06:22;;;;;;;;;;;;;;;15.38;39.91;99662.06;4385880;32;19970;-78
2022/04/20 07:08:49;;;;;;;;;;;;;;;15.83;37.17;99660.03;3849087;32;10000609;-80
2022/04/20 07:11:15;;;;;;;;;;;;;;;16.35;37.39;99662.16;4361893;32;20341;-80
2022/04/20 07:13:42;;;;;;;;;;;;;;;16.13;37.84;99664.97;4370485;32;20046;-80
2022/04/20 07:16:10;;;;;;;;;;;;;;;16.37;38.19;99657.78;4382273;32;20042;-80
2022/04/20 07:18:37;;;;;;;;;;;;;;;16.76;36.13;99655.66;4383428;32;19995;-80
2022/04/20 07:21:05;;;;;;;;;;;;;;;17.03;35.50;99660.50;4390091;32;20002;-80
2022/04/20 07:23:34;;;;;;;;;;;;;;;17.16;33.72;99651.59;4393269;32;20049;-81
2022/04/20 07:26:01;;;;;;;;;;;;;;;16.98;35.04;99657.13;4389253;32;19991;-81
2022/04/20 07:28:28;;;;;;;;;;;;;;;17.13;35.18;99662.16;4385401;32;20044;-77
2022/04/20 07:30:56;;;;;;;;;;;;;;;17.28;34.25;99657.56;4379071;32;19983;-80
2022/04/20 07:33:24;;;;;;;;;;;;;;;17.80;33.80;99660.28;4384687;32;19997;-80
2022/04/20 07:35:52;;;;;;;;;;;;;;;17.59;34.79;99656.22;4385748;32;20013;-79
2022/04/20 07:38:19;;;;;;;;;;;;;;;18.18;31.89;99661.38;4385728;32;19975;-79
2022/04/20 07:40:55;;;;;;;;;;;;;;;18.06;33.28;99652.00;4379380;32;20061;-79
2022/04/20 07:43:22;;;;;;;;;;;;;;;18.16;32.92;99657.09;4385475;32;20031;-81
2022/04/20 07:45:49;;;;;;;;;;;;;;;18.42;33.26;99660.09;4385480;32;19983;-80
2022/04/20 07:48:17;;;;;;;;;;;;;;;18.36;32.11;99654.97;4396540;32;20021;-82
2022/04/20 07:50:46;;;;;;;;;;;;;;;18.67;30.78;99664.88;4384138;32;20013;-82
2022/04/20 07:53:12;;;;;;;;;;;;;;;18.75;31.89;99662.97;4384991;32;20368;-79
2022/04/20 07:55:46;;;;;;;;;;;;;;;18.88;30.91;99664.44;4386426;32;20008;-82
2022/04/20 07:58:14;;;;;;;;;;;;;;;18.67;30.40;99659.63;4385687;32;19986;-81
2022/04/20 08:00:41;;;;;;;;;;;;;;;18.48;32.92;99665.22;4383777;32;20415;-81
2022/04/20 08:03:12;;;;;;;;;;;;;;;18.71;31.63;99661.28;4393187;32;19986;-82
2022/04/20 08:05:40;;;;;;;;;;;;;;;18.58;31.86;99660.66;4371260;32;19995;-82
2022/04/20 08:08:07;;;;;;;;;;;;;;;18.83;34.09;99655.81;4377055;32;19987;-82
2022/04/20 08:10:34;;;;;;;;;;;;;;;18.96;31.60;99646.78;4385288;32;19982;-81
2022/04/20 08:14:09;;;;;;;;;;;;;;;19.15;28.60;99646.41;4385302;32;20036;-82
2022/04/20 08:15:49;;;;;;;;;;;;;;;18.88;29.15;99643.47;4385744;32;20383;-81
2022/04/20 08:18:16;;;;;;;;;;;;;;;18.59;31.40;99647.50;4385071;32;20073;-81
2022/04/20 08:20:45;;;;;;;;;;;;;;;19.19;29.73;99642.81;4379662;32;20001;-81
2022/04/20 08:23:13;;;;;;;;;;;;;;;18.47;32.18;99646.88;4385122;32;19986;-81
2022/04/20 08:25:40;;;;;;;;;;;;;;;18.84;29.54;99636.56;4385820;32;19975;-80
2022/04/20 08:28:07;;;;;;;;;;;;;;;18.86;29.79;99640.03;4392216;32;20754;-81
2022/04/20 08:30:37;;;;;;;;;;;;;;;18.72;31.56;99636.78;4384415;32;20046;-81
2022/04/20 08:33:07;;;;;;;;;;;;;;;19.03;30.73;99643.13;4386175;32;20016;-80
2022/04/20 08:35:35;;;;;;;;;;;;;;;18.83;30.81;99640.09;4385118;32;19978;-82
2022/04/20 08:38:02;;;;;;;;;;;;;;;18.68;30.70;99633.34;4385757;32;20005;-80
2022/04/20 08:40:29;;;;;;;;;;;;;;;18.72;31.53;99636.78;4385135;32;19986;-80
2022/04/20 08:42:59;;;;;;;;;;;;;;;19.03;28.74;99640.50;4385521;32;20383;-80
2022/04/20 08:45:26;;;;;;;;;;;;;;;19.33;26.75;99624.97;4396065;32;20323;-81
2022/04/20 08:47:53;;;;;;;;;;;;;;;19.38;27.05;99627.50;4384345;32;19983;-81
2022/04/20 08:50:20;;;;;;;;;;;;;;;19.12;28.59;99635.97;4389524;32;20511;-81
2022/04/20 08:52:49;;;;;;;;;;;;;;;18.76;30.18;99630.59;4385318;32;20466;-80
2022/04/20 08:55:17;;;;;;;;;;;;;;;19.04;27.36;99629.13;4374502;32;20028;-82
2022/04/20 08:57:47;;;;;;;;;;;;;;;19.28;28.53;99630.34;4394378;32;19986;-81
2022/04/20 09:00:22;;;;;;;;;;;;;;;19.24;28.74;99635.69;4384910;32;20017;-81
2022/04/20 09:02:52;;;;;;;;;;;;;;;19.61;27.77;99629.59;4384894;32;20074;-82
2022/04/20 09:05:20;;;;;;;;;;;;;;;19.36;29.51;99624.91;4385400;32;20365;-81
2022/04/20 09:07:47;;;;;;;;;;;;;;;19.60;26.93;99627.87;4383610;32;20006;-81
2022/04/20 09:10:16;;;;;;;;;;;;;;;19.46;26.49;99625.53;4385182;32;19990;-81
2022/04/20 09:12:44;;;;;;;;;;;;;;;19.67;27.80;99626.84;4385209;32;19983;-81
2022/04/20 09:15:14;;;;;;;;;;;;;;;19.00;28.24;99626.59;4383441;32;20283;-82
2022/04/20 09:17:44;;;;;;;;;;;;;;;19.03;29.37;99621.28;4384559;32;19994;-81
2022/04/20 09:20:17;;;;;;;;;;;;;;;18.60;30.47;99630.00;4385542;32;20321;-81
2022/04/20 09:23:04;;;;;;;;;;;;;;;19.24;29.31;99625.19;4385675;32;19986;-80
2022/04/20 09:25:34;;;;;;;;;;;;;;;19.44;25.92;99627.37;4385182;32;19982;-81
2022/04/20 09:28:02;;;;;;;;;;;;;;;19.09;30.52;99617.69;4377827;32;20032;-81
2022/04/20 09:30:33;;;;;;;;;;;;;;;19.60;27.02;99612.97;4384890;32;20403;-80
2022/04/20 09:33:02;;;;;;;;;;;;;;;19.60;27.59;99609.50;4382342;32;20462;-81
2022/04/20 09:35:29;;;;;;;;;;;;;;;19.68;25.53;99612.81;4385500;32;20660;-82
2022/04/20 09:38:03;;;;;;;;;;;;;;;19.95;25.32;99604.22;4385365;32;19970;-81
2022/04/20 09:40:33;;;;;;;;;;;;;;;19.42;25.42;99609.00;4384904;32;20081;-81
2022/04/20 09:43:03;;;;;;;;;;;;;;;18.94;29.64;99611.00;4384637;32;20048;-81
2022/04/20 09:45:30;;;;;;;;;;;;;;;18.72;28.21;99610.56;4375224;32;19979;-81
2022/04/20 09:50:43;;;;;;;;;;;;;;;18.99;27.63;99610.00;4384929;32;20049;-82
2022/04/20 09:53:13;;;;;;;;;;;;;;;19.09;30.46;99609.81;4385484;32;19983;-82
2022/04/20 09:55:41;;;;;;;;;;;;;;;18.99;30.07;99604.75;4384606;32;20054;-81
2022/04/20 09:58:13;;;;;;;;;;;;;;;18.94;32.25;99601.38;4381978;32;20324;-82
2022/04/20 10:00:40;;;;;;;;;;;;;;;19.55;26.43;99598.22;4385451;32;20025;-82
2022/04/20 10:03:08;;;;;;;;;;;;;;;19.86;25.15;99593.97;4384928;32;20001;-82
2022/04/20 10:05:36;;;;;;;;;;;;;;;19.68;28.30;99597.03;4386130;32;20300;-82
2022/04/20 10:08:05;;;;;;;;;;;;;;;19.44;28.20;99596.72;4386440;32;20474;-82
2022/04/20 10:10:35;;;;;;;;;;;;;;;19.13;28.61;99596.56;4386214;32;20305;-82
2022/04/20 10:13:03;;;;;;;;;;;;;;;18.95;29.94;99595.25;4384439;32;20017;-82
2022/04/20 10:18:19;;;;;;;;;;;;;;;19.59;25.54;99597.22;4395927;32;19990;-81
2022/04/20 10:20:47;;;;;;;;;;;;;;;19.62;25.58;99591.91;4385982;32;19983;-82
2022/04/20 10:23:15;;;;;;;;;;;;;;;20.03;24.05;99590.03;4384917;32;20081;-82
2022/04/20 10:25:41;;;;;;;;;;;;;;;19.79;25.65;99596.78;4386628;32;19989;-82
2022/04/20 10:28:11;;;;;;;;;;;;;;;20.14;23.47;99593.25;4389205;32;19994;-82
2022/04/20 10:31:03;;;;;;;;;;;;;;;19.30;25.54;99583.06;4382187;32;19979;-82
2022/04/20 10:33:33;;;;;;;;;;;;;;;19.98;23.73;99577.88;4371387;32;19997;-82
2022/04/20 10:36:04;;;;;;;;;;;;;;;19.84;26.66;99580.00;4371759;32;19987;-82
2022/04/20 10:38:32;;;;;;;;;;;;;;;19.56;27.17;99578.94;4390913;32;20001;-81
2022/04/20 10:41:12;;;;;;;;;;;;;;;20.02;21.43;99583.06;4387069;32;19987;-81
2022/04/20 10:43:42;;;;;;;;;;;;;;;19.46;22.71;99578.28;4386039;32;20949;-82
2022/04/20 10:46:11;;;;;;;;;;;;;;;18.81;25.15;99578.94;4386699;32;20009;-82
2022/04/20 10:48:48;;;;;;;;;;;;;;;18.41;27.89;99579.75;4386875;32;19978;-81
2022/04/20 10:51:16;;;;;;;;;;;;;;;18.03;28.39;99589.19;4386456;32;19986;-82
2022/04/20 10:53:45;;;;;;;;;;;;;;;18.39;27.61;99581.53;4385760;32;20001;-81
2022/04/20 10:56:12;;;;;;;;;;;;;;;18.21;31.00;99579.25;4386031;32;19978;-82
2022/04/20 10:58:52;;;;;;;;;;;;;;;18.32;30.44;99579.91;4383845;32;20028;-83
2022/04/20 11:01:19;;;;;;;;;;;;;;;18.52;29.63;99572.50;4379751;32;19974;-83
2022/04/20 11:03:58;;;;;;;;;;;;;;;19.03;28.46;99569.69;4386261;32;20006;-83
2022/04/20 11:06:26;;;;;;;;;;;;;;;19.12;28.31;99567.75;4361070;32;19970;-83
2022/04/20 11:08:58;;;;;;;;;;;;;;;19.30;25.38;99562.06;4382092;32;19987;-82
2022/04/20 11:20:07;;;;;;;;;;;;;;;19.47;24.07;99570.41;4365630;32;19987;-82
2022/04/20 11:22:44;;;;;;;;;;;;;;;18.76;25.45;99567.66;4394527;32;19987;-83
2022/04/20 11:25:11;;;;;;;;;;;;;;;18.87;26.62;99564.81;4370666;32;19987;-82
2022/04/20 11:27:40;;;;;;;;;;;;;;;19.21;24.01;99559.69;4368428;32;19979;-82
2022/04/20 11:30:07;;;;;;;;;;;;;;;19.16;25.85;99564.16;4370239;32;19982;-82
2022/04/20 11:32:34;;;;;;;;;;;;;;;19.25;23.26;99559.56;4362820;32;19965;-82
2022/04/20 11:35:08;;;;;;;;;;;;;;;19.08;25.08;99550.34;4356567;32;20657;-82
2022/04/20 11:37:37;;;;;;;;;;;;;;;19.08;24.60;99550.34;4051907;32;10004639;-83
2022/04/20 11:40:11;;;;;;;;;;;;;;;19.17;24.58;99556.22;4370822;32;19975;-82
2022/04/20 11:42:38;;;;;;;;;;;;;;;17.77;27.88;99559.97;4370278;32;20021;-83
2022/04/20 11:45:06;;;;;;;;;;;;;;;18.16;26.79;99558.41;4370565;32;20021;-84
2022/04/20 11:47:39;;;;;;;;;;;;;;;18.64;27.70;99552.19;4370538;32;19983;-82
2022/04/20 11:50:09;;;;;;;;;;;;;;;19.21;24.01;99546.56;4370762;32;19983;-81
2022/04/20 11:52:37;;;;;;;;;;;;;;;18.95;24.46;99555.91;4370638;32;19986;-83
2022/04/20 11:55:09;;;;;;;;;;;;;;;18.46;25.63;99562.16;4370644;32;20049;-83
2022/04/20 11:57:38;;;;;;;;;;;;;;;17.85;29.02;99548.47;4368997;32;20025;-84
2022/04/20 12:00:05;;;;;;;;;;;;;;;18.36;24.82;99550.13;4370740;32;20056;-82
2022/04/20 12:02:37;;;;;;;;;;;;;;;18.59;26.03;99545.25;4370637;32;20332;-82
2022/04/20 12:05:09;;;;;;;;;;;;;;;18.15;27.26;99550.56;4370535;32;20049;-82
2022/04/20 12:07:36;;;;;;;;;;;;;;;17.22;29.42;99545.19;4366948;32;19974;-81
2022/04/20 12:10:04;;;;;;;;;;;;;;;17.88;29.27;99542.34;4364414;32;19979;-80
2022/04/20 12:12:33;;;;;;;;;;;;;;;17.82;26.96;99542.44;4369408;32;20034;-81
2022/04/20 12:15:20;;;;;;;;;;;;;;;18.04;26.42;99542.91;4368519;32;20029;-82
2022/04/20 12:18:14;;;;;;;;;;;;;;;18.41;25.29;99537.81;4377338;32;19997;-80
2022/04/20 12:20:59;;;;;;;;;;;;;;;18.21;26.13;99534.72;4324023;32;20021;-81
2022/04/20 12:23:37;;;;;;;;;;;;;;;18.75;24.99;99531.84;4369073;32;19991;-80
2022/04/20 12:26:10;;;;;;;;;;;;;;;18.95;23.98;99519.19;4374417;32;20394;-85
2022/04/20 12:28:44;;;;;;;;;;;;;;;18.86;24.48;99532.50;4359926;32;19984;-84
2022/04/20 12:31:21;;;;;;;;;;;;;;;18.54;25.93;99528.78;4367111;32;19974;-83
2022/04/20 12:33:59;;;;;;;;;;;;;;;18.43;26.09;99530.75;4362320;32;19987;-80
2022/04/20 12:36:25;;;;;;;;;;;;;;;18.85;26.20;99527.28;4362994;32;20366;-82
2022/04/20 12:38:54;;;;;;;;;;;;;;;19.11;23.86;99524.03;4365035;32;20005;-84
2022/04/20 12:41:44;;;;;;;;;;;;;;;18.75;26.56;99516.13;4364447;32;20050;-82
2022/04/20 12:44:31;;;;;;;;;;;;;;;18.41;26.14;99516.84;4363041;32;20247;-83
2022/04/20 12:46:58;;;;;;;;;;;;;;;18.92;24.61;99521.87;4362647;32;20352;-82
2022/04/20 12:49:27;;;;;;;;;;;;;;;19.57;23.79;99522.91;4363876;32;19996;-83
2022/04/20 12:51:54;;;;;;;;;;;;;;;19.64;22.84;99514.00;4391137;32;19998;-84
2022/04/20 12:54:27;;;;;;;;;;;;;;;19.38;23.78;99528.63;4218630;32;10000263;-83
2022/04/20 13:02:47;;;;;;;;;;;;;;;19.61;25.93;99519.31;4193220;32;5001970;-83
2022/04/20 13:05:14;;;;;;;;;;;;;;;19.84;23.09;99519.56;3765546;32;10000628;-83
2022/04/20 13:07:41;;;;;;;;;;;;;;;19.38;25.20;99512.87;4376189;32;20454;-83
2022/04/20 13:10:07;;;;;;;;;;;;;;;19.73;23.91;99519.00;4372512;32;20426;-83
2022/04/20 13:12:46;;;;;;;;;;;;;;;19.50;23.69;99507.31;4326406;32;1199524;-83
2022/04/20 13:15:13;;;;;;;;;;;;;;;19.53;24.56;99511.63;4376313;32;20002;-83
2022/04/20 13:17:39;;;;;;;;;;;;;;;18.62;25.16;99501.53;4382503;32;19974;-82
2022/04/20 13:20:07;;;;;;;;;;;;;;;18.68;25.11;99504.03;4391958;32;20017;-82
2022/04/20 13:22:34;;;;;;;;;;;;;;;18.91;25.14;99495.66;4392707;32;19983;-81
2022/04/20 13:27:56;;;;;;;;;;;;;;;19.36;24.73;99487.56;4390029;32;20414;-83
2022/04/20 13:30:29;;;;;;;;;;;;;;;19.32;23.88;99492.03;4384628;32;19998;-83
2022/04/20 13:32:56;;;;;;;;;;;;;;;19.68;23.35;99489.38;4391982;32;20047;-83
2022/04/20 13:35:24;;;;;;;;;;;;;;;19.08;26.30;99482.13;4384530;32;19989;-82